Sichem Orchid — 9HNC9 — position and weather

sailwx.info

Track history (hours):
 
Tides and Currents Weather Stations Pressure Air Temp Water Temp Dewpoint Dewpoint Depression Visibility Wind Speed Wind Dir Waves Ship Positions

Sichem Orchid

Last reported at 2017-Oct-18 21:53 UTC. Time now 2017-Oct-18 22:43 UTC.
Position N 36°10' W 005°23'.

Length 115 m; draft 6.2 m.

Type: Ship. MMSI: 249213000.

Date/timePositionNaut miles runAvg speedWind from/ knotsBaromVisibWave heightAir tempDewpointWater temp
2017-Oct-18 21:53N 36°10' W 005°23'0 0.0
2017-Oct-18 21:29N 36°10' W 005°23'0 0.0
2017-Oct-18 20:47N 36°10' W 005°23'0 0.0
2017-Oct-18 20:26N 36°10' W 005°23'0 0.1
2017-Oct-18 18:56N 36°10' W 005°23'0 0.0
2017-Oct-18 04:08N 36°10' W 005°23'0 0.2
2017-Oct-18 03:59N 36°10' W 005°24'0 0.0
2017-Oct-18 02:11N 36°10' W 005°24'0 0.1
2017-Oct-18 01:59N 36°10' W 005°24'0 0.0
2017-Oct-18 00:53N 36°10' W 005°24'0 0.0
2017-Oct-17 23:05N 36°10' W 005°24'0 0.2
2017-Oct-17 22:59N 36°10' W 005°24'2 5.1
2017-Oct-17 22:30N 36°08' W 005°24'3 6.1
2017-Oct-17 22:01N 36°05' W 005°23'1 2.7
2017-Oct-17 21:30N 36°04' W 005°24'2 3.2
2017-Oct-17 21:00N 36°05' W 005°23'5 9.6
2017-Oct-17 20:30N 36°06' W 005°17'713.3
2017-Oct-17 19:58N 36°07' W 005°08'20712.3
2017-Oct-17 03:05N 37°13' W 001°04'113.1
2017-Oct-17 03:00N 37°14' W 001°03'612.8
2017-Oct-17 02:30N 37°18' W 000°56'612.6
2017-Oct-17 02:00N 37°22' W 000°51'612.5
2017-Oct-17 01:31N 37°26' W 000°45'612.8
2017-Oct-17 01:01N 37°31' W 000°39'612.8
2017-Oct-17 00:31N 37°35' W 000°33'613.0
2017-Oct-17 00:01N 37°41' W 000°29'713.0
2017-Oct-16 23:31N 37°46' W 000°24'713.0
2017-Oct-16 23:00N 37°52' W 000°19'813.1
2017-Oct-16 22:23N 37°58' W 000°14'  
2017-Oct-09 07:09N 37°50' W 000°16'312.9
2017-Oct-09 06:54N 37°47' W 000°19'512.8
2017-Oct-09 06:30N 37°43' W 000°22'612.7
2017-Oct-09 06:00N 37°38' W 000°27'612.8
2017-Oct-09 05:30N 37°33' W 000°32'812.8
2017-Oct-09 04:53N 37°27' W 000°39'513.0
2017-Oct-09 04:30N 37°24' W 000°44'713.2
2017-Oct-09 03:59N 37°20' W 000°50'713.0
2017-Oct-09 03:25N 37°15' W 000°57'513.0
2017-Oct-09 03:00N 37°12' W 001°03'712.8
2017-Oct-09 02:26N 37°07' W 001°10'  
Track history (hours):
 
Tides and Currents Weather Stations Pressure Air Temp Water Temp Dewpoint Dewpoint Depression Visibility Wind Speed Wind Dir Waves Ship Positions

Sichem Orchid

Last reported at 2017-Oct-18 21:53 UTC. Time now 2017-Oct-18 22:43 UTC.
Position N 36°10' W 005°23'.

Length 115 m; draft 6.2 m.

Type: Ship. MMSI: 249213000.

Date/timePositionNaut miles runAvg speedWind from/ knotsBaromVisibWave heightAir tempDewpointWater temp
2017-Oct-18 21:53N 36°10' W 005°23'0 0.0
2017-Oct-18 21:29N 36°10' W 005°23'0 0.0
2017-Oct-18 20:47N 36°10' W 005°23'0 0.0
2017-Oct-18 20:26N 36°10' W 005°23'0 0.1
2017-Oct-18 18:56N 36°10' W 005°23'0 0.0
2017-Oct-18 04:08N 36°10' W 005°23'0 0.2
2017-Oct-18 03:59N 36°10' W 005°24'0 0.0
2017-Oct-18 02:11N 36°10' W 005°24'0 0.1
2017-Oct-18 01:59N 36°10' W 005°24'0 0.0
2017-Oct-18 00:53N 36°10' W 005°24'0 0.0
2017-Oct-17 23:05N 36°10' W 005°24'0 0.2
2017-Oct-17 22:59N 36°10' W 005°24'2 5.1
2017-Oct-17 22:30N 36°08' W 005°24'3 6.1
2017-Oct-17 22:01N 36°05' W 005°23'1 2.7
2017-Oct-17 21:30N 36°04' W 005°24'2 3.2
2017-Oct-17 21:00N 36°05' W 005°23'5 9.6
2017-Oct-17 20:30N 36°06' W 005°17'713.3
2017-Oct-17 19:58N 36°07' W 005°08'20712.3
2017-Oct-17 03:05N 37°13' W 001°04'113.1
2017-Oct-17 03:00N 37°14' W 001°03'612.8
2017-Oct-17 02:30N 37°18' W 000°56'612.6
2017-Oct-17 02:00N 37°22' W 000°51'612.5
2017-Oct-17 01:31N 37°26' W 000°45'612.8
2017-Oct-17 01:01N 37°31' W 000°39'612.8
2017-Oct-17 00:31N 37°35' W 000°33'613.0
2017-Oct-17 00:01N 37°41' W 000°29'713.0
2017-Oct-16 23:31N 37°46' W 000°24'713.0
2017-Oct-16 23:00N 37°52' W 000°19'813.1
2017-Oct-16 22:23N 37°58' W 000°14'  
2017-Oct-09 07:09N 37°50' W 000°16'312.9
2017-Oct-09 06:54N 37°47' W 000°19'512.8
2017-Oct-09 06:30N 37°43' W 000°22'612.7
2017-Oct-09 06:00N 37°38' W 000°27'612.8
2017-Oct-09 05:30N 37°33' W 000°32'812.8
2017-Oct-09 04:53N 37°27' W 000°39'513.0
2017-Oct-09 04:30N 37°24' W 000°44'713.2
2017-Oct-09 03:59N 37°20' W 000°50'713.0
2017-Oct-09 03:25N 37°15' W 000°57'513.0
2017-Oct-09 03:00N 37°12' W 001°03'712.8
2017-Oct-09 02:26N 37°07' W 001°10'  

Dump ship's entire track history